sensor_id;sensor_type;location;lat;lon;timestamp;P1;durP1;ratioP1;P2;durP2;ratioP2
4971;SDS011;2501;51.214;6.768;2022-09-20T00:01:30;11.13;;;3.50;;
4971;SDS011;2501;51.214;6.768;2022-09-20T00:04:01;13.65;;;2.72;;
4971;SDS011;2501;51.214;6.768;2022-09-20T00:06:34;12.32;;;2.80;;
4971;SDS011;2501;51.214;6.768;2022-09-20T00:09:03;10.45;;;3.05;;
4971;SDS011;2501;51.214;6.768;2022-09-20T00:11:33;17.03;;;3.03;;
4971;SDS011;2501;51.214;6.768;2022-09-20T00:14:02;7.43;;;3.10;;
4971;SDS011;2501;51.214;6.768;2022-09-20T00:16:34;13.55;;;3.45;;
4971;SDS011;2501;51.214;6.768;2022-09-20T00:19:04;13.27;;;3.33;;
4971;SDS011;2501;51.214;6.768;2022-09-20T00:21:36;13.27;;;3.10;;
4971;SDS011;2501;51.214;6.768;2022-09-20T00:24:04;22.63;;;3.40;;
4971;SDS011;2501;51.214;6.768;2022-09-20T00:26:33;9.65;;;3.30;;
4971;SDS011;2501;51.214;6.768;2022-09-20T00:29:02;11.38;;;3.08;;
4971;SDS011;2501;51.214;6.768;2022-09-20T00:31:31;9.10;;;3.05;;
4971;SDS011;2501;51.214;6.768;2022-09-20T00:34:01;10.05;;;3.47;;
4971;SDS011;2501;51.214;6.768;2022-09-20T00:36:44;11.98;;;3.97;;
4971;SDS011;2501;51.214;6.768;2022-09-20T00:39:13;11.05;;;3.30;;
4971;SDS011;2501;51.214;6.768;2022-09-20T00:41:42;5.78;;;2.70;;
4971;SDS011;2501;51.214;6.768;2022-09-20T00:47:09;9.05;;;2.70;;
4971;SDS011;2501;51.214;6.768;2022-09-20T00:49:41;8.68;;;3.13;;
4971;SDS011;2501;51.214;6.768;2022-09-20T00:52:13;8.85;;;3.60;;
4971;SDS011;2501;51.214;6.768;2022-09-20T00:54:44;8.05;;;3.40;;
4971;SDS011;2501;51.214;6.768;2022-09-20T00:57:13;7.30;;;3.40;;
4971;SDS011;2501;51.214;6.768;2022-09-20T00:59:42;13.33;;;3.87;;
4971;SDS011;2501;51.214;6.768;2022-09-20T01:02:15;6.22;;;3.30;;
4971;SDS011;2501;51.214;6.768;2022-09-20T01:04:46;8.13;;;3.60;;
4971;SDS011;2501;51.214;6.768;2022-09-20T01:07:19;10.30;;;3.53;;
4971;SDS011;2501;51.214;6.768;2022-09-20T01:09:49;6.78;;;3.00;;
4971;SDS011;2501;51.214;6.768;2022-09-20T01:12:19;9.57;;;3.45;;
4971;SDS011;2501;51.214;6.768;2022-09-20T01:14:50;10.13;;;3.53;;
4971;SDS011;2501;51.214;6.768;2022-09-20T01:17:21;6.20;;;3.30;;
4971;SDS011;2501;51.214;6.768;2022-09-20T01:19:55;6.93;;;3.28;;
4971;SDS011;2501;51.214;6.768;2022-09-20T01:22:40;8.13;;;3.63;;
4971;SDS011;2501;51.214;6.768;2022-09-20T01:25:16;13.18;;;3.92;;
4971;SDS011;2501;51.214;6.768;2022-09-20T01:27:52;6.75;;;3.55;;
4971;SDS011;2501;51.214;6.768;2022-09-20T01:30:22;5.68;;;3.28;;
4971;SDS011;2501;51.214;6.768;2022-09-20T01:32:59;8.57;;;3.25;;
4971;SDS011;2501;51.214;6.768;2022-09-20T01:35:34;7.83;;;3.13;;
4971;SDS011;2501;51.214;6.768;2022-09-20T01:40:55;9.25;;;3.80;;
4971;SDS011;2501;51.214;6.768;2022-09-20T01:43:33;10.60;;;3.50;;
4971;SDS011;2501;51.214;6.768;2022-09-20T01:46:07;6.35;;;3.20;;
4971;SDS011;2501;51.214;6.768;2022-09-20T01:49:00;12.05;;;3.90;;
4971;SDS011;2501;51.214;6.768;2022-09-20T01:57:51;12.23;;;3.63;;
4971;SDS011;2501;51.214;6.768;2022-09-20T02:00:36;12.23;;;3.50;;
4971;SDS011;2501;51.214;6.768;2022-09-20T02:03:24;6.85;;;3.20;;
4971;SDS011;2501;51.214;6.768;2022-09-20T02:09:29;10.63;;;3.40;;
4971;SDS011;2501;51.214;6.768;2022-09-20T02:12:18;9.00;;;3.25;;
4971;SDS011;2501;51.214;6.768;2022-09-20T02:14:57;11.23;;;3.90;;
4971;SDS011;2501;51.214;6.768;2022-09-20T02:17:40;6.90;;;3.50;;
4971;SDS011;2501;51.214;6.768;2022-09-20T02:20:30;9.85;;;3.50;;
4971;SDS011;2501;51.214;6.768;2022-09-20T02:25:56;9.23;;;3.20;;
4971;SDS011;2501;51.214;6.768;2022-09-20T02:28:37;8.80;;;3.38;;
4971;SDS011;2501;51.214;6.768;2022-09-20T02:34:29;9.70;;;3.70;;
4971;SDS011;2501;51.214;6.768;2022-09-20T02:37:14;11.90;;;3.20;;
4971;SDS011;2501;51.214;6.768;2022-09-20T02:40:01;8.63;;;3.03;;
4971;SDS011;2501;51.214;6.768;2022-09-20T02:42:43;7.40;;;2.80;;
4971;SDS011;2501;51.214;6.768;2022-09-20T02:45:18;9.35;;;2.80;;
4971;SDS011;2501;51.214;6.768;2022-09-20T02:47:54;13.10;;;3.10;;
4971;SDS011;2501;51.214;6.768;2022-09-20T02:50:30;18.65;;;3.60;;
4971;SDS011;2501;51.214;6.768;2022-09-20T02:53:06;12.32;;;3.00;;
4971;SDS011;2501;51.214;6.768;2022-09-20T02:55:46;11.30;;;3.50;;
4971;SDS011;2501;51.214;6.768;2022-09-20T02:58:26;8.65;;;2.60;;
4971;SDS011;2501;51.214;6.768;2022-09-20T03:01:08;15.50;;;3.73;;
4971;SDS011;2501;51.214;6.768;2022-09-20T03:03:49;7.70;;;3.00;;
4971;SDS011;2501;51.214;6.768;2022-09-20T03:06:32;10.77;;;3.10;;
4971;SDS011;2501;51.214;6.768;2022-09-20T03:09:10;10.82;;;3.05;;
4971;SDS011;2501;51.214;6.768;2022-09-20T03:11:47;13.98;;;3.38;;
4971;SDS011;2501;51.214;6.768;2022-09-20T03:14:27;13.55;;;3.10;;
4971;SDS011;2501;51.214;6.768;2022-09-20T03:17:04;9.02;;;3.03;;
4971;SDS011;2501;51.214;6.768;2022-09-20T03:19:49;10.70;;;3.20;;
4971;SDS011;2501;51.214;6.768;2022-09-20T03:22:35;7.20;;;2.78;;
4971;SDS011;2501;51.214;6.768;2022-09-20T03:25:24;9.27;;;3.00;;
4971;SDS011;2501;51.214;6.768;2022-09-20T03:28:04;4.00;;;2.70;;
4971;SDS011;2501;51.214;6.768;2022-09-20T03:30:50;9.65;;;2.90;;
4971;SDS011;2501;51.214;6.768;2022-09-20T03:33:30;11.10;;;3.20;;
4971;SDS011;2501;51.214;6.768;2022-09-20T03:36:11;10.20;;;3.30;;
4971;SDS011;2501;51.214;6.768;2022-09-20T03:39:05;11.30;;;3.30;;
4971;SDS011;2501;51.214;6.768;2022-09-20T03:42:02;8.75;;;3.08;;
4971;SDS011;2501;51.214;6.768;2022-09-20T03:47:50;10.57;;;3.47;;
4971;SDS011;2501;51.214;6.768;2022-09-20T03:53:33;8.45;;;3.25;;
4971;SDS011;2501;51.214;6.768;2022-09-20T03:59:46;9.03;;;3.20;;
4971;SDS011;2501;51.214;6.768;2022-09-20T04:02:43;8.70;;;3.78;;
4971;SDS011;2501;51.214;6.768;2022-09-20T04:05:32;10.38;;;4.13;;
4971;SDS011;2501;51.214;6.768;2022-09-20T04:08:10;6.65;;;3.47;;
4971;SDS011;2501;51.214;6.768;2022-09-20T04:10:52;10.25;;;4.07;;
4971;SDS011;2501;51.214;6.768;2022-09-20T04:13:33;8.93;;;3.75;;
4971;SDS011;2501;51.214;6.768;2022-09-20T04:16:08;7.85;;;4.30;;
4971;SDS011;2501;51.214;6.768;2022-09-20T04:18:48;17.67;;;5.05;;
4971;SDS011;2501;51.214;6.768;2022-09-20T04:21:25;14.50;;;4.75;;
4971;SDS011;2501;51.214;6.768;2022-09-20T04:23:59;10.85;;;3.85;;
4971;SDS011;2501;51.214;6.768;2022-09-20T04:26:35;13.75;;;4.40;;
4971;SDS011;2501;51.214;6.768;2022-09-20T04:29:13;13.25;;;4.22;;
4971;SDS011;2501;51.214;6.768;2022-09-20T04:31:58;13.60;;;4.85;;
4971;SDS011;2501;51.214;6.768;2022-09-20T04:34:32;9.37;;;4.10;;
4971;SDS011;2501;51.214;6.768;2022-09-20T04:37:21;10.48;;;4.32;;
4971;SDS011;2501;51.214;6.768;2022-09-20T04:39:58;8.13;;;4.28;;
4971;SDS011;2501;51.214;6.768;2022-09-20T04:42:54;12.38;;;4.20;;
4971;SDS011;2501;51.214;6.768;2022-09-20T04:51:58;10.70;;;4.90;;
4971;SDS011;2501;51.214;6.768;2022-09-20T04:58:04;13.20;;;4.57;;
4971;SDS011;2501;51.214;6.768;2022-09-20T05:01:03;12.60;;;5.50;;
4971;SDS011;2501;51.214;6.768;2022-09-20T05:07:12;13.65;;;5.28;;
4971;SDS011;2501;51.214;6.768;2022-09-20T05:10:02;10.63;;;5.47;;
4971;SDS011;2501;51.214;6.768;2022-09-20T05:12:54;13.07;;;5.28;;
4971;SDS011;2501;51.214;6.768;2022-09-20T05:15:38;12.25;;;5.10;;
4971;SDS011;2501;51.214;6.768;2022-09-20T05:21:31;10.63;;;5.82;;
4971;SDS011;2501;51.214;6.768;2022-09-20T05:24:26;9.80;;;5.38;;
4971;SDS011;2501;51.214;6.768;2022-09-20T05:27:15;12.40;;;5.70;;
4971;SDS011;2501;51.214;6.768;2022-09-20T05:29:55;19.00;;;5.88;;
4971;SDS011;2501;51.214;6.768;2022-09-20T05:32:32;20.20;;;5.70;;
4971;SDS011;2501;51.214;6.768;2022-09-20T05:35:11;16.80;;;6.00;;
4971;SDS011;2501;51.214;6.768;2022-09-20T05:37:48;11.23;;;5.70;;
4971;SDS011;2501;51.214;6.768;2022-09-20T05:40:27;14.07;;;5.03;;
4971;SDS011;2501;51.214;6.768;2022-09-20T05:43:01;14.13;;;5.85;;
4971;SDS011;2501;51.214;6.768;2022-09-20T05:45:48;14.18;;;6.45;;
4971;SDS011;2501;51.214;6.768;2022-09-20T05:48:33;14.10;;;5.43;;
4971;SDS011;2501;51.214;6.768;2022-09-20T05:51:08;14.13;;;5.95;;
4971;SDS011;2501;51.214;6.768;2022-09-20T05:53:58;11.88;;;5.90;;
4971;SDS011;2501;51.214;6.768;2022-09-20T05:56:44;14.25;;;5.90;;
4971;SDS011;2501;51.214;6.768;2022-09-20T05:59:31;15.85;;;6.28;;
4971;SDS011;2501;51.214;6.768;2022-09-20T06:02:13;13.10;;;5.93;;
4971;SDS011;2501;51.214;6.768;2022-09-20T06:04:51;10.27;;;5.75;;
4971;SDS011;2501;51.214;6.768;2022-09-20T06:07:31;12.90;;;6.55;;
4971;SDS011;2501;51.214;6.768;2022-09-20T06:10:19;13.18;;;6.10;;
4971;SDS011;2501;51.214;6.768;2022-09-20T06:13:10;14.73;;;5.90;;
4971;SDS011;2501;51.214;6.768;2022-09-20T06:15:53;12.80;;;6.10;;
4971;SDS011;2501;51.214;6.768;2022-09-20T06:18:27;11.45;;;6.13;;
4971;SDS011;2501;51.214;6.768;2022-09-20T06:21:06;9.50;;;5.85;;
4971;SDS011;2501;51.214;6.768;2022-09-20T06:23:43;11.70;;;5.63;;
4971;SDS011;2501;51.214;6.768;2022-09-20T06:26:13;12.95;;;6.07;;
4971;SDS011;2501;51.214;6.768;2022-09-20T06:28:48;14.32;;;5.97;;
4971;SDS011;2501;51.214;6.768;2022-09-20T06:31:18;13.57;;;5.50;;
4971;SDS011;2501;51.214;6.768;2022-09-20T06:33:48;12.15;;;5.57;;
4971;SDS011;2501;51.214;6.768;2022-09-20T06:36:22;41.33;;;8.98;;
4971;SDS011;2501;51.214;6.768;2022-09-20T06:39:10;17.55;;;6.15;;
4971;SDS011;2501;51.214;6.768;2022-09-20T06:41:56;17.77;;;6.57;;
4971;SDS011;2501;51.214;6.768;2022-09-20T06:44:28;12.93;;;6.07;;
4971;SDS011;2501;51.214;6.768;2022-09-20T06:46:57;15.07;;;5.60;;
4971;SDS011;2501;51.214;6.768;2022-09-20T06:49:25;11.07;;;5.95;;
4971;SDS011;2501;51.214;6.768;2022-09-20T06:51:54;17.95;;;6.80;;
4971;SDS011;2501;51.214;6.768;2022-09-20T06:54:22;10.90;;;5.60;;
4971;SDS011;2501;51.214;6.768;2022-09-20T06:56:51;14.07;;;6.67;;
4971;SDS011;2501;51.214;6.768;2022-09-20T06:59:19;16.60;;;6.25;;
4971;SDS011;2501;51.214;6.768;2022-09-20T07:01:50;32.45;;;7.28;;
4971;SDS011;2501;51.214;6.768;2022-09-20T07:04:19;21.35;;;6.90;;
4971;SDS011;2501;51.214;6.768;2022-09-20T07:06:50;10.93;;;5.70;;
4971;SDS011;2501;51.214;6.768;2022-09-20T07:09:19;14.65;;;6.07;;
4971;SDS011;2501;51.214;6.768;2022-09-20T07:11:47;28.60;;;7.50;;
4971;SDS011;2501;51.214;6.768;2022-09-20T07:14:16;17.80;;;6.63;;
4971;SDS011;2501;51.214;6.768;2022-09-20T07:16:44;13.47;;;5.60;;
4971;SDS011;2501;51.214;6.768;2022-09-20T07:19:15;13.88;;;5.50;;
4971;SDS011;2501;51.214;6.768;2022-09-20T07:21:44;14.10;;;6.37;;
4971;SDS011;2501;51.214;6.768;2022-09-20T07:24:12;12.43;;;5.80;;
4971;SDS011;2501;51.214;6.768;2022-09-20T07:26:52;11.60;;;5.37;;
4971;SDS011;2501;51.214;6.768;2022-09-20T07:29:21;15.82;;;5.40;;
4971;SDS011;2501;51.214;6.768;2022-09-20T07:31:51;12.17;;;5.37;;
4971;SDS011;2501;51.214;6.768;2022-09-20T07:34:22;14.93;;;5.75;;
4971;SDS011;2501;51.214;6.768;2022-09-20T07:36:51;14.05;;;4.60;;
4971;SDS011;2501;51.214;6.768;2022-09-20T07:39:21;7.80;;;4.57;;
4971;SDS011;2501;51.214;6.768;2022-09-20T07:41:50;18.92;;;5.80;;
4971;SDS011;2501;51.214;6.768;2022-09-20T07:44:18;12.48;;;5.40;;
4971;SDS011;2501;51.214;6.768;2022-09-20T07:46:53;8.32;;;4.18;;
4971;SDS011;2501;51.214;6.768;2022-09-20T07:49:25;10.98;;;4.60;;
4971;SDS011;2501;51.214;6.768;2022-09-20T07:51:55;12.13;;;4.40;;
4971;SDS011;2501;51.214;6.768;2022-09-20T07:54:24;12.40;;;4.50;;
4971;SDS011;2501;51.214;6.768;2022-09-20T07:56:54;11.32;;;4.90;;
4971;SDS011;2501;51.214;6.768;2022-09-20T07:59:22;12.67;;;4.40;;
4971;SDS011;2501;51.214;6.768;2022-09-20T08:01:51;10.38;;;4.00;;
4971;SDS011;2501;51.214;6.768;2022-09-20T08:04:19;12.27;;;4.45;;
4971;SDS011;2501;51.214;6.768;2022-09-20T08:06:50;16.15;;;4.65;;
4971;SDS011;2501;51.214;6.768;2022-09-20T08:09:19;11.45;;;4.00;;
4971;SDS011;2501;51.214;6.768;2022-09-20T08:11:47;8.45;;;3.70;;
4971;SDS011;2501;51.214;6.768;2022-09-20T08:14:16;8.80;;;3.97;;
4971;SDS011;2501;51.214;6.768;2022-09-20T08:16:46;6.93;;;4.50;;
4971;SDS011;2501;51.214;6.768;2022-09-20T08:19:16;11.40;;;3.95;;
4971;SDS011;2501;51.214;6.768;2022-09-20T08:21:50;9.30;;;3.75;;
4971;SDS011;2501;51.214;6.768;2022-09-20T08:24:19;6.00;;;3.53;;
4971;SDS011;2501;51.214;6.768;2022-09-20T08:26:50;9.80;;;4.10;;
4971;SDS011;2501;51.214;6.768;2022-09-20T08:29:25;8.35;;;3.60;;
4971;SDS011;2501;51.214;6.768;2022-09-20T08:31:58;8.13;;;3.60;;
4971;SDS011;2501;51.214;6.768;2022-09-20T08:34:27;24.23;;;5.10;;
4971;SDS011;2501;51.214;6.768;2022-09-20T08:36:58;9.75;;;4.30;;
4971;SDS011;2501;51.214;6.768;2022-09-20T08:39:26;10.55;;;3.80;;
4971;SDS011;2501;51.214;6.768;2022-09-20T08:41:56;14.33;;;4.00;;
4971;SDS011;2501;51.214;6.768;2022-09-20T08:44:33;14.80;;;4.10;;
4971;SDS011;2501;51.214;6.768;2022-09-20T08:47:10;14.05;;;3.72;;
4971;SDS011;2501;51.214;6.768;2022-09-20T08:49:44;8.18;;;3.40;;
4971;SDS011;2501;51.214;6.768;2022-09-20T08:52:16;16.55;;;3.90;;
4971;SDS011;2501;51.214;6.768;2022-09-20T08:54:48;9.37;;;3.20;;
4971;SDS011;2501;51.214;6.768;2022-09-20T08:57:17;12.60;;;3.20;;
4971;SDS011;2501;51.214;6.768;2022-09-20T08:59:47;6.23;;;2.30;;
4971;SDS011;2501;51.214;6.768;2022-09-20T09:02:18;9.60;;;2.70;;
4971;SDS011;2501;51.214;6.768;2022-09-20T09:04:48;5.80;;;2.50;;
4971;SDS011;2501;51.214;6.768;2022-09-20T09:07:20;6.70;;;2.35;;
4971;SDS011;2501;51.214;6.768;2022-09-20T09:09:51;8.98;;;2.20;;
4971;SDS011;2501;51.214;6.768;2022-09-20T09:12:22;5.67;;;1.90;;
4971;SDS011;2501;51.214;6.768;2022-09-20T09:14:52;8.35;;;2.30;;
4971;SDS011;2501;51.214;6.768;2022-09-20T09:17:27;6.40;;;2.10;;
4971;SDS011;2501;51.214;6.768;2022-09-20T09:19:57;9.18;;;2.30;;
4971;SDS011;2501;51.214;6.768;2022-09-20T09:22:30;7.13;;;2.88;;
4971;SDS011;2501;51.214;6.768;2022-09-20T09:25:08;5.70;;;2.30;;
4971;SDS011;2501;51.214;6.768;2022-09-20T09:27:49;5.38;;;1.77;;
4971;SDS011;2501;51.214;6.768;2022-09-20T09:30:21;7.97;;;2.15;;
4971;SDS011;2501;51.214;6.768;2022-09-20T09:32:51;8.95;;;2.10;;
4971;SDS011;2501;51.214;6.768;2022-09-20T09:35:22;5.95;;;2.33;;
4971;SDS011;2501;51.214;6.768;2022-09-20T09:37:56;7.40;;;2.30;;
4971;SDS011;2501;51.214;6.768;2022-09-20T09:40:27;6.55;;;2.00;;
4971;SDS011;2501;51.214;6.768;2022-09-20T09:42:57;5.57;;;1.80;;
4971;SDS011;2501;51.214;6.768;2022-09-20T09:45:29;8.50;;;2.25;;
4971;SDS011;2501;51.214;6.768;2022-09-20T09:48:00;6.07;;;1.75;;
4971;SDS011;2501;51.214;6.768;2022-09-20T09:50:31;7.35;;;2.13;;
4971;SDS011;2501;51.214;6.768;2022-09-20T09:53:07;7.33;;;2.10;;
4971;SDS011;2501;51.214;6.768;2022-09-20T09:55:46;7.65;;;1.67;;
4971;SDS011;2501;51.214;6.768;2022-09-20T09:58:30;7.28;;;1.70;;
4971;SDS011;2501;51.214;6.768;2022-09-20T10:01:10;8.98;;;1.90;;
4971;SDS011;2501;51.214;6.768;2022-09-20T10:03:51;8.07;;;2.10;;
4971;SDS011;2501;51.214;6.768;2022-09-20T10:06:25;2.50;;;1.40;;
4971;SDS011;2501;51.214;6.768;2022-09-20T10:09:06;5.30;;;1.50;;
4971;SDS011;2501;51.214;6.768;2022-09-20T10:11:52;5.50;;;2.17;;
4971;SDS011;2501;51.214;6.768;2022-09-20T10:14:34;10.30;;;1.83;;
4971;SDS011;2501;51.214;6.768;2022-09-20T10:17:19;7.43;;;2.20;;
4971;SDS011;2501;51.214;6.768;2022-09-20T10:20:09;10.45;;;1.60;;
4971;SDS011;2501;51.214;6.768;2022-09-20T10:22:57;7.60;;;1.90;;
4971;SDS011;2501;51.214;6.768;2022-09-20T10:25:38;8.77;;;2.00;;
4971;SDS011;2501;51.214;6.768;2022-09-20T10:28:16;3.15;;;1.30;;
4971;SDS011;2501;51.214;6.768;2022-09-20T10:30:55;10.70;;;1.80;;
4971;SDS011;2501;51.214;6.768;2022-09-20T10:33:34;12.10;;;1.80;;
4971;SDS011;2501;51.214;6.768;2022-09-20T10:36:17;6.10;;;1.40;;
4971;SDS011;2501;51.214;6.768;2022-09-20T10:38:53;6.78;;;2.10;;
4971;SDS011;2501;51.214;6.768;2022-09-20T10:41:35;7.47;;;1.50;;
4971;SDS011;2501;51.214;6.768;2022-09-20T10:44:32;2.58;;;1.20;;
4971;SDS011;2501;51.214;6.768;2022-09-20T10:47:15;3.10;;;1.20;;
4971;SDS011;2501;51.214;6.768;2022-09-20T10:49:47;2.20;;;1.20;;
4971;SDS011;2501;51.214;6.768;2022-09-20T10:52:26;4.60;;;1.20;;
4971;SDS011;2501;51.214;6.768;2022-09-20T11:00:59;5.60;;;2.20;;
4971;SDS011;2501;51.214;6.768;2022-09-20T11:03:49;1.70;;;1.10;;
4971;SDS011;2501;51.214;6.768;2022-09-20T11:06:31;5.85;;;1.67;;
4971;SDS011;2501;51.214;6.768;2022-09-20T11:09:12;6.10;;;2.08;;
4971;SDS011;2501;51.214;6.768;2022-09-20T11:11:47;5.85;;;1.50;;
4971;SDS011;2501;51.214;6.768;2022-09-20T11:14:24;4.88;;;1.90;;
4971;SDS011;2501;51.214;6.768;2022-09-20T11:16:58;4.43;;;1.10;;
4971;SDS011;2501;51.214;6.768;2022-09-20T11:19:36;4.90;;;1.30;;
4971;SDS011;2501;51.214;6.768;2022-09-20T11:22:17;2.80;;;1.40;;
4971;SDS011;2501;51.214;6.768;2022-09-20T11:24:50;5.28;;;1.50;;
4971;SDS011;2501;51.214;6.768;2022-09-20T11:27:23;3.92;;;1.20;;
4971;SDS011;2501;51.214;6.768;2022-09-20T11:30:00;4.63;;;1.30;;
4971;SDS011;2501;51.214;6.768;2022-09-20T11:32:33;3.95;;;1.50;;
4971;SDS011;2501;51.214;6.768;2022-09-20T11:35:13;3.90;;;1.20;;
4971;SDS011;2501;51.214;6.768;2022-09-20T11:37:52;5.40;;;1.10;;
4971;SDS011;2501;51.214;6.768;2022-09-20T11:40:31;3.45;;;1.20;;
4971;SDS011;2501;51.214;6.768;2022-09-20T11:43:04;4.97;;;1.10;;
4971;SDS011;2501;51.214;6.768;2022-09-20T11:45:38;3.93;;;1.10;;
4971;SDS011;2501;51.214;6.768;2022-09-20T11:48:12;3.70;;;1.23;;
4971;SDS011;2501;51.214;6.768;2022-09-20T11:50:51;1.73;;;0.90;;
4971;SDS011;2501;51.214;6.768;2022-09-20T11:53:38;2.00;;;0.90;;
4971;SDS011;2501;51.214;6.768;2022-09-20T11:56:17;4.00;;;1.10;;
4971;SDS011;2501;51.214;6.768;2022-09-20T11:58:49;2.35;;;0.70;;
4971;SDS011;2501;51.214;6.768;2022-09-20T12:01:25;6.18;;;1.10;;
4971;SDS011;2501;51.214;6.768;2022-09-20T12:03:57;3.38;;;0.98;;
4971;SDS011;2501;51.214;6.768;2022-09-20T12:06:28;3.85;;;1.20;;
4971;SDS011;2501;51.214;6.768;2022-09-20T12:08:59;5.33;;;1.20;;
4971;SDS011;2501;51.214;6.768;2022-09-20T12:11:31;2.03;;;0.90;;
4971;SDS011;2501;51.214;6.768;2022-09-20T12:14:03;3.30;;;1.10;;
4971;SDS011;2501;51.214;6.768;2022-09-20T12:16:37;1.70;;;0.80;;
4971;SDS011;2501;51.214;6.768;2022-09-20T12:19:09;1.20;;;0.80;;
4971;SDS011;2501;51.214;6.768;2022-09-20T12:24:37;5.63;;;1.48;;
4971;SDS011;2501;51.214;6.768;2022-09-20T12:27:19;0.90;;;0.80;;
4971;SDS011;2501;51.214;6.768;2022-09-20T12:30:01;3.67;;;0.93;;
4971;SDS011;2501;51.214;6.768;2022-09-20T12:38:47;3.70;;;1.27;;
4971;SDS011;2501;51.214;6.768;2022-09-20T12:41:22;5.63;;;1.42;;
4971;SDS011;2501;51.214;6.768;2022-09-20T12:43:55;4.57;;;1.50;;
4971;SDS011;2501;51.214;6.768;2022-09-20T12:46:36;7.95;;;2.03;;
4971;SDS011;2501;51.214;6.768;2022-09-20T12:52:30;7.32;;;1.70;;
4971;SDS011;2501;51.214;6.768;2022-09-20T12:55:25;1.20;;;1.10;;
4971;SDS011;2501;51.214;6.768;2022-09-20T12:57:58;4.20;;;2.07;;
4971;SDS011;2501;51.214;6.768;2022-09-20T13:00:31;4.00;;;1.45;;
4971;SDS011;2501;51.214;6.768;2022-09-20T13:08:54;4.22;;;1.48;;
4971;SDS011;2501;51.214;6.768;2022-09-20T13:11:29;4.65;;;1.40;;
4971;SDS011;2501;51.214;6.768;2022-09-20T13:14:05;3.80;;;1.30;;
4971;SDS011;2501;51.214;6.768;2022-09-20T13:16:43;7.47;;;1.80;;
4971;SDS011;2501;51.214;6.768;2022-09-20T13:19:17;3.10;;;1.90;;
4971;SDS011;2501;51.214;6.768;2022-09-20T13:21:54;2.10;;;1.20;;
4971;SDS011;2501;51.214;6.768;2022-09-20T13:24:25;4.90;;;1.50;;
4971;SDS011;2501;51.214;6.768;2022-09-20T13:26:59;2.90;;;1.50;;
4971;SDS011;2501;51.214;6.768;2022-09-20T13:29:33;3.53;;;1.20;;
4971;SDS011;2501;51.214;6.768;2022-09-20T13:32:16;11.30;;;1.70;;
4971;SDS011;2501;51.214;6.768;2022-09-20T13:34:45;4.55;;;1.20;;
4971;SDS011;2501;51.214;6.768;2022-09-20T13:37:18;4.70;;;1.35;;
4971;SDS011;2501;51.214;6.768;2022-09-20T13:39:51;4.20;;;1.20;;
4971;SDS011;2501;51.214;6.768;2022-09-20T13:42:21;5.70;;;1.80;;
4971;SDS011;2501;51.214;6.768;2022-09-20T13:44:50;7.18;;;1.38;;
4971;SDS011;2501;51.214;6.768;2022-09-20T13:47:23;6.13;;;1.35;;
4971;SDS011;2501;51.214;6.768;2022-09-20T13:49:58;5.10;;;1.50;;
4971;SDS011;2501;51.214;6.768;2022-09-20T13:52:30;4.40;;;1.25;;
4971;SDS011;2501;51.214;6.768;2022-09-20T13:54:58;5.78;;;1.80;;
4971;SDS011;2501;51.214;6.768;2022-09-20T13:57:27;3.10;;;1.40;;
4971;SDS011;2501;51.214;6.768;2022-09-20T13:59:57;3.70;;;1.50;;
4971;SDS011;2501;51.214;6.768;2022-09-20T14:02:28;3.58;;;1.10;;
4971;SDS011;2501;51.214;6.768;2022-09-20T14:04:59;3.22;;;1.45;;
4971;SDS011;2501;51.214;6.768;2022-09-20T14:07:33;4.20;;;1.20;;
4971;SDS011;2501;51.214;6.768;2022-09-20T14:10:03;4.00;;;1.65;;
4971;SDS011;2501;51.214;6.768;2022-09-20T14:12:33;4.65;;;1.40;;
4971;SDS011;2501;51.214;6.768;2022-09-20T14:15:03;2.70;;;1.30;;
4971;SDS011;2501;51.214;6.768;2022-09-20T14:17:36;5.60;;;1.40;;
4971;SDS011;2501;51.214;6.768;2022-09-20T14:20:04;5.05;;;1.40;;
4971;SDS011;2501;51.214;6.768;2022-09-20T14:22:36;3.40;;;2.30;;
4971;SDS011;2501;51.214;6.768;2022-09-20T14:25:17;3.83;;;1.10;;
4971;SDS011;2501;51.214;6.768;2022-09-20T14:28:02;3.70;;;1.10;;
4971;SDS011;2501;51.214;6.768;2022-09-20T14:30:33;3.75;;;1.40;;
4971;SDS011;2501;51.214;6.768;2022-09-20T14:33:03;3.05;;;0.80;;
4971;SDS011;2501;51.214;6.768;2022-09-20T14:35:34;1.20;;;1.10;;
4971;SDS011;2501;51.214;6.768;2022-09-20T14:38:07;6.13;;;1.10;;
4971;SDS011;2501;51.214;6.768;2022-09-20T14:40:40;3.80;;;1.00;;
4971;SDS011;2501;51.214;6.768;2022-09-20T14:43:24;4.30;;;1.23;;
4971;SDS011;2501;51.214;6.768;2022-09-20T14:45:56;3.78;;;1.00;;
4971;SDS011;2501;51.214;6.768;2022-09-20T14:48:34;4.20;;;1.40;;
4971;SDS011;2501;51.214;6.768;2022-09-20T14:51:09;2.88;;;1.10;;
4971;SDS011;2501;51.214;6.768;2022-09-20T14:53:52;2.50;;;1.20;;
4971;SDS011;2501;51.214;6.768;2022-09-20T14:56:41;3.10;;;1.10;;
4971;SDS011;2501;51.214;6.768;2022-09-20T14:59:21;2.78;;;0.98;;
4971;SDS011;2501;51.214;6.768;2022-09-20T15:02:00;4.80;;;1.38;;
4971;SDS011;2501;51.214;6.768;2022-09-20T15:04:30;3.50;;;0.85;;
4971;SDS011;2501;51.214;6.768;2022-09-20T15:07:02;6.50;;;1.10;;
4971;SDS011;2501;51.214;6.768;2022-09-20T15:09:37;1.40;;;0.80;;
4971;SDS011;2501;51.214;6.768;2022-09-20T15:12:08;2.53;;;0.80;;
4971;SDS011;2501;51.214;6.768;2022-09-20T15:14:40;4.50;;;1.00;;
4971;SDS011;2501;51.214;6.768;2022-09-20T15:17:09;5.05;;;1.10;;
4971;SDS011;2501;51.214;6.768;2022-09-20T15:19:42;3.70;;;0.90;;
4971;SDS011;2501;51.214;6.768;2022-09-20T15:22:10;3.70;;;1.00;;
4971;SDS011;2501;51.214;6.768;2022-09-20T15:24:42;3.92;;;1.00;;
4971;SDS011;2501;51.214;6.768;2022-09-20T15:27:10;2.57;;;0.80;;
4971;SDS011;2501;51.214;6.768;2022-09-20T15:29:39;3.00;;;1.10;;
4971;SDS011;2501;51.214;6.768;2022-09-20T15:32:08;2.35;;;1.13;;
4971;SDS011;2501;51.214;6.768;2022-09-20T15:34:37;2.80;;;1.00;;
4971;SDS011;2501;51.214;6.768;2022-09-20T15:37:06;1.92;;;0.90;;
4971;SDS011;2501;51.214;6.768;2022-09-20T15:39:34;6.13;;;1.50;;
4971;SDS011;2501;51.214;6.768;2022-09-20T15:42:06;1.88;;;0.80;;
4971;SDS011;2501;51.214;6.768;2022-09-20T15:44:34;1.58;;;0.90;;
4971;SDS011;2501;51.214;6.768;2022-09-20T15:47:03;3.13;;;1.00;;
4971;SDS011;2501;51.214;6.768;2022-09-20T15:49:32;3.10;;;0.90;;
4971;SDS011;2501;51.214;6.768;2022-09-20T15:52:00;3.55;;;1.10;;
4971;SDS011;2501;51.214;6.768;2022-09-20T15:54:29;5.00;;;0.98;;
4971;SDS011;2501;51.214;6.768;2022-09-20T15:56:58;5.35;;;1.10;;
4971;SDS011;2501;51.214;6.768;2022-09-20T15:59:29;2.45;;;0.88;;
4971;SDS011;2501;51.214;6.768;2022-09-20T16:01:58;3.33;;;1.38;;
4971;SDS011;2501;51.214;6.768;2022-09-20T16:04:27;4.50;;;1.10;;
4971;SDS011;2501;51.214;6.768;2022-09-20T16:06:58;2.23;;;1.23;;
4971;SDS011;2501;51.214;6.768;2022-09-20T16:09:30;4.00;;;1.25;;
4971;SDS011;2501;51.214;6.768;2022-09-20T16:12:00;6.30;;;1.10;;
4971;SDS011;2501;51.214;6.768;2022-09-20T16:14:31;3.35;;;1.20;;
4971;SDS011;2501;51.214;6.768;2022-09-20T16:17:00;4.20;;;1.40;;
4971;SDS011;2501;51.214;6.768;2022-09-20T16:19:28;5.40;;;1.20;;
4971;SDS011;2501;51.214;6.768;2022-09-20T16:21:55;4.70;;;1.40;;
4971;SDS011;2501;51.214;6.768;2022-09-20T16:24:25;3.63;;;1.30;;
4971;SDS011;2501;51.214;6.768;2022-09-20T16:26:55;4.47;;;1.23;;
4971;SDS011;2501;51.214;6.768;2022-09-20T16:29:24;5.88;;;1.30;;
4971;SDS011;2501;51.214;6.768;2022-09-20T16:31:57;3.70;;;1.00;;
4971;SDS011;2501;51.214;6.768;2022-09-20T16:34:28;6.15;;;1.10;;
4971;SDS011;2501;51.214;6.768;2022-09-20T16:36:57;5.63;;;1.40;;
4971;SDS011;2501;51.214;6.768;2022-09-20T16:39:27;2.70;;;1.33;;
4971;SDS011;2501;51.214;6.768;2022-09-20T16:41:58;3.10;;;1.30;;
4971;SDS011;2501;51.214;6.768;2022-09-20T16:44:28;5.05;;;0.98;;
4971;SDS011;2501;51.214;6.768;2022-09-20T16:47:00;4.72;;;1.20;;
4971;SDS011;2501;51.214;6.768;2022-09-20T16:49:32;1.50;;;1.00;;
4971;SDS011;2501;51.214;6.768;2022-09-20T16:52:02;4.10;;;1.20;;
4971;SDS011;2501;51.214;6.768;2022-09-20T16:54:31;2.60;;;1.02;;
4971;SDS011;2501;51.214;6.768;2022-09-20T16:57:00;2.70;;;1.13;;
4971;SDS011;2501;51.214;6.768;2022-09-20T16:59:29;6.68;;;1.58;;
4971;SDS011;2501;51.214;6.768;2022-09-20T17:02:00;3.53;;;1.52;;
4971;SDS011;2501;51.214;6.768;2022-09-20T17:04:28;4.00;;;1.57;;
4971;SDS011;2501;51.214;6.768;2022-09-20T17:06:56;4.07;;;1.50;;
4971;SDS011;2501;51.214;6.768;2022-09-20T17:09:25;5.10;;;1.15;;
4971;SDS011;2501;51.214;6.768;2022-09-20T17:11:54;3.22;;;1.60;;